Bookmark and Share
Track history (hours):
 

Haci Arif Kaptan

Last reported at 2014-Apr-21 17:33 UTC. Time now 2014-Apr-25 06:17 UTC.
Position N 36°30' E 028°03'.

Length 130 m; draft 7.8 m.

Type: Cargo ship. MMSI: 271000494.

NotesDate/timePositionNaut miles runAvg speedWind from/ knotsBaromVisibWave heightAir tempDewpointWater temp
2014-Apr-21 17:33N 36°30' E 028°03'9 9.0
2014-Apr-21 16:33N 36°29' E 027°52'11 8.9
2014-Apr-21 15:19N 36°33' E 027°39'7 9.1
2014-Apr-21 14:33N 36°36' E 027°31'10 8.7
2014-Apr-21 13:24N 36°41' E 027°20'14 7.9
2014-Apr-21 11:33N 36°55' E 027°20'9 8.8
2014-Apr-21 10:32N 36°59' E 027°10'9 8.7
2014-Apr-21 09:31N 37°05' E 027°02'9 8.9
2014-Apr-21 08:33N 37°13' E 026°57'9 8.1
2014-Apr-21 07:24N 37°21' E 026°51'43 8.3
2014-Apr-21 02:12N 37°53' E 026°14'107 7.9
2014-Apr-20 12:32N 39°37' E 025°44'8 7.6
2014-Apr-20 11:27N 39°45' E 025°46'9 7.3
2014-Apr-20 10:14N 39°54' E 025°51'48 8.3
2014-Apr-20 04:22N 40°23' E 026°41'8 9.3
2014-Apr-20 03:29N 40°28' E 026°50'101 6.1
2014-Apr-19 11:04N 40°59' E 028°57'0 0.1
2014-Apr-19 09:33N 40°59' E 028°56'0 0.0
2014-Apr-19 08:33N 40°59' E 028°56'0 0.2
2014-Apr-19 07:32N 40°59' E 028°57'292 6.0
2014-Apr-17 07:11N 45°38' E 030°53'8 9.1
2014-Apr-17 06:15N 45°46' E 030°56'6 9.0
2014-Apr-17 05:33N 45°52' E 030°59'10 9.0
2014-Apr-17 04:26N 46°02' E 031°03'7 7.8
2014-Apr-17 03:33N 46°09' E 031°03'8 8.2
2014-Apr-17 02:32N 46°15' E 030°55'9 8.7
2014-Apr-17 01:33N 46°23' E 030°55'9 8.8
2014-Apr-17 00:33N 46°32' E 030°55'7 0.2
2014-Apr-15 07:34N 46°26' E 030°57'1010.3
2014-Apr-15 06:33N 46°15' E 030°60'10 9.7
2014-Apr-15 05:32N 46°07' E 031°07'  

Dump ship's entire track history

sailing weather and tide predictions

Haci Arif Kaptan — TCQQ — position and weather